Relevés horaires Spa / La Sauveniere (Belgique)


Relevés horaires à Spa / La Sauveniere - Samedi 21 Janv. 2017
Heure UTC1 Température [°C] Vent [km/h] Hum. [%] Pres.4 [hPa] Visi. [Km] Nébu. [octa] Préc.5 [mm] Cond.
2m. Res. Ros. Dir.2 Vit. Moy. Raf.3
23:00 -3.1 -7.8 -8.4 SSE 13.0 13.0 14.8 67 1029.2(0.4/3h) 19 0/8 -- --
22:00 -2.4 -6 -8.3 SSE 9.3 11.1 13.0 64 1028.8(0.2/3h) 20 0/8 -- --
21:00 -2.6 -6.2 -7.9 SSE 9.3 13.0 16.7 67 1028.9(-0.2/3h) 19 0/8 -- --
20:00 -1.9 -5.9 -7.9 SSE 11.1 13.0 16.7 63 1028.5(0.1/3h) 19 0/8 -- --
19:00 -1.3 -4.7 -8.3 SSE 9.3 11.1 14.8 59 1028.4(0.1/3h) 28 0/8 -- --
18:00 -0.9 -4.2 -8.0 S 9.3 11.1 20.4 58 1028.3(-0.1/3h) 24 0/8 0/12h
--
17:00 -0.2 -3.4 -7.8 SSE 9.3 9.3 13.0 56 1028(0.0/3h) 27 0/8 -- --
16:00 -0.8 -0.8 -6.9 NNO 1.9 5.6 7.4 63 1028.1(-0.7/3h) 30 0/8 -- --
15:00 1.6 1.6 -7.1 NNO 1.9 11.1 20.4 52 1027.7(-1.0/3h) 40 0/8 -- --
14:00 2.1 -0.6 -8.0 SSE 9.3 9.3 14.8 47 1027.5(-1.3/3h) 28 0/8 -- --
13:00 2.0 0.4 -8.3 SSE 5.6 11.1 20.4 46 1028.3(-0.6/3h) 30 0/8 -- --
12:00 2.0 -0.7 -8.2 SSE 9.3 14.8 22.2 47 1028.7(0.1/3h) 27 0/8 0/6h
--
11:00 0.8 -3 -8.7 SSE 13.0 14.8 20.4 49 1029.1(0.1/3h) 29 0/8 -- --
10:00 -0.4 -4.5 -8.7 SSE 13.0 14.8 22.2 53 1029.5(0.2/3h) 30 0/8 -- --
09:00 -1.6 -6.3 -9.2 SSE 14.8 14.8 22.2 56 1029.6(0.1/3h) 40 0/8 -- --
08:00 -2.6 -7.2 -9.3 SSE 13.0 13.0 18.5 60 1029.8(-0.5/3h) 45 0/8 -- --
07:00 -2.7 -6.3 -9.0 SSE 9.3 11.1 16.7 62 1029.8(-0.4/3h) 45 0/8 -- --
06:00 -2.4 -5.3 -9.1 SE 7.4 13.0 18.5 60 1029.8(-0.8/3h) 45 0/8 0/12h
--
05:00 -2.2 -2.2 -9.5 SE 1.9 11.1 16.7 57 1030.2(-0.7/3h) 45 0/8 -- --
04:00 -2.0 -6 -9.2 SE 11.1 13.0 18.5 58 1030(-0.8/3h) 45 0/8 -- --
03:00 -2.1 -6.1 -10.0 SE 11.1 11.1 16.7 55 1030.6(-0.8/3h) 50 0/8 -- --
02:00 -2.0 -4.9 -10.6 ESE 7.4 9.3 14.8 52 1030.9(-0.7/3h) 45 0/8 -- --
01:00 -1.5 -4.9 -10.3 ESE 9.3 9.3 14.8 51 1030.8(-1.0/3h) 45 0/8 -- --
00:00 -1.2 -4.6 -9.3 ESE 9.3 13.0 20.4 54 1031.1(-0.9/3h) 45 0/8 0/6h
0/24h
--

1 Coordinated Universal Time. Actuellement il est 02:00 locale et 00:00 UTC.

2 Le vent souffle depuis la direction indiquée vers la direction oposée.

3 Les rafales max. sont disponible 40 min après l'heure du relevé.

4 Pour les stations d'altitude (plus de 600m) le géopotentiel du niveau le plus proche de la pression obligatoire est indiqué.

5 Les stations disposant d'un diffuseur peuvent indiquer "trace". Cela signifie que des précipitations ont touchés le sol mais que la quantité est inférieure à 0.1 mm.

Récapitulatif de la journée
Température [°C] Vent [km/h] Ensoleillement4 [h] Precipitations totale5 [mm] Pression [Hpa]
Min1 Max.2 Moy.3 Max. Min Max.
-2.6 2.8 11.7 22.2 0 h 0 min 0 1027.5 1031.1

1 Température minimale relevée entre 18:00 UTC la veille et 18:00 UTC le jour donné.

2 Température maximale relevée entre 06:00 UTC le jour donné et 06:00 UTC le lendemain.

3 Vent moyen de la journée basé sur les relevés horaires.

4 Ensoleillement en heures relevé entre 06:00 UTC la veille et 06:00 UTC le jour donné.

5 Précipitations totales tombées entre 06:00 UTC la jour donné et 06:00 UTC le lendemain.

Graphiques horaires